createdAt,value
2018-12-04T00:00:17.085Z,9.56
2018-12-04T00:01:17.072Z,9.56
2018-12-04T00:02:17.181Z,9.59
2018-12-04T00:03:17.036Z,9.59
2018-12-04T00:04:17.059Z,9.6
2018-12-04T00:05:17.028Z,9.6
2018-12-04T00:06:17.058Z,9.54
2018-12-04T00:07:17.097Z,9.52
2018-12-04T00:08:17.114Z,9.49
2018-12-04T00:09:17.042Z,9.52
2018-12-04T00:10:17.018Z,9.48
2018-12-04T00:11:17.005Z,9.48
2018-12-04T00:12:17.180Z,9.47
2018-12-04T00:13:17.051Z,9.47
2018-12-04T00:14:17.083Z,9.5
2018-12-04T00:15:17.089Z,9.46
2018-12-04T00:16:17.057Z,9.48
2018-12-04T00:17:17.135Z,9.43
2018-12-04T00:18:17.303Z,9.43
2018-12-04T00:19:17.159Z,9.42
2018-12-04T00:20:17.101Z,9.4
2018-12-04T00:21:17.213Z,9.39
2018-12-04T00:22:17.017Z,9.4
2018-12-04T00:23:17.109Z,9.43
2018-12-04T00:24:17.063Z,9.41
2018-12-04T00:25:17.324Z,9.39
2018-12-04T00:26:17.067Z,9.41
2018-12-04T00:27:17.000Z,9.42
2018-12-04T00:28:17.076Z,9.38
2018-12-04T00:29:17.027Z,9.42
2018-12-04T00:30:17.086Z,9.44
2018-12-04T00:31:17.148Z,9.41
2018-12-04T00:32:17.115Z,9.41
2018-12-04T00:33:17.159Z,9.39
2018-12-04T00:34:17.083Z,9.4
2018-12-04T00:35:17.141Z,9.44
2018-12-04T00:36:17.081Z,9.42
2018-12-04T00:37:17.019Z,9.42
2018-12-04T00:38:17.505Z,9.43
2018-12-04T00:39:17.069Z,9.44
2018-12-04T00:40:17.061Z,9.43
2018-12-04T00:41:17.182Z,9.47
2018-12-04T00:42:17.246Z,9.47
2018-12-04T00:43:17.093Z,9.45
2018-12-04T00:44:17.074Z,9.43
2018-12-04T00:45:17.031Z,9.46
2018-12-04T00:46:17.041Z,9.43
2018-12-04T00:47:16.917Z,9.44
2018-12-04T00:48:17.093Z,9.45
2018-12-04T00:49:17.023Z,9.48
2018-12-04T00:50:17.079Z,9.45
2018-12-04T00:51:16.985Z,9.47
2018-12-04T00:52:17.146Z,9.48
2018-12-04T00:53:17.233Z,9.51
2018-12-04T00:54:17.305Z,9.53
2018-12-04T00:55:16.937Z,9.5
2018-12-04T00:56:17.099Z,9.52
2018-12-04T00:57:17.165Z,9.56
2018-12-04T00:58:17.062Z,9.56
2018-12-04T00:59:17.221Z,9.57
2018-12-04T01:00:17.589Z,9.6
2018-12-04T01:01:16.955Z,9.6
2018-12-04T01:02:17.249Z,9.6
2018-12-04T01:03:17.107Z,9.66
2018-12-04T01:04:16.996Z,9.64
2018-12-04T01:05:16.974Z,9.65
2018-12-04T01:06:17.753Z,9.67
2018-12-04T01:07:17.059Z,9.72
2018-12-04T01:08:17.057Z,9.71
2018-12-04T01:09:16.938Z,9.74
2018-12-04T01:10:17.387Z,9.76
2018-12-04T01:11:16.927Z,9.74
2018-12-04T01:12:17.183Z,9.73
2018-12-04T01:13:17.122Z,9.72
2018-12-04T01:14:17.224Z,9.73
2018-12-04T01:15:17.202Z,9.7
2018-12-04T01:16:17.147Z,9.73
2018-12-04T01:17:16.885Z,9.74
2018-12-04T01:18:16.918Z,9.73
2018-12-04T01:19:17.018Z,9.75
2018-12-04T01:20:16.911Z,9.73
2018-12-04T01:21:17.015Z,9.74
2018-12-04T01:22:17.151Z,9.72
2018-12-04T01:23:17.048Z,9.72
2018-12-04T01:24:17.097Z,9.73
2018-12-04T01:25:17.046Z,9.74
2018-12-04T01:26:17.088Z,9.71
2018-12-04T01:27:17.173Z,9.72
2018-12-04T01:28:17.017Z,9.71
2018-12-04T01:29:16.978Z,9.73
2018-12-04T01:30:17.383Z,9.7
2018-12-04T01:31:17.499Z,9.71
2018-12-04T01:32:17.100Z,9.7
2018-12-04T01:33:17.052Z,9.7
2018-12-04T01:34:16.904Z,9.7
2018-12-04T01:35:17.084Z,9.68
2018-12-04T01:36:17.051Z,9.68
2018-12-04T01:37:17.198Z,9.68
2018-12-04T01:38:16.932Z,9.69
2018-12-04T01:39:16.942Z,9.65
2018-12-04T01:40:16.897Z,9.67
2018-12-04T01:41:16.951Z,9.66
2018-12-04T01:42:16.896Z,9.66
2018-12-04T01:43:16.964Z,9.66
2018-12-04T01:44:16.923Z,9.66
2018-12-04T01:45:16.879Z,9.6
2018-12-04T01:46:16.904Z,9.63
2018-12-04T01:47:16.858Z,9.63
2018-12-04T01:48:17.216Z,9.6
2018-12-04T01:49:16.868Z,9.6
2018-12-04T01:50:16.901Z,9.6
2018-12-04T01:51:16.902Z,9.6
2018-12-04T01:52:16.917Z,9.6
2018-12-04T01:53:17.107Z,9.58
2018-12-04T01:54:16.856Z,9.62
2018-12-04T01:55:16.863Z,9.6
2018-12-04T01:56:16.928Z,9.62
2018-12-04T01:57:17.032Z,9.59
2018-12-04T01:58:16.885Z,9.61
2018-12-04T01:59:16.894Z,9.61
2018-12-04T02:00:17.145Z,9.62
2018-12-04T02:01:17.168Z,9.6
2018-12-04T02:02:16.970Z,9.59
2018-12-04T02:03:17.147Z,9.58
2018-12-04T02:04:16.865Z,9.62
2018-12-04T02:05:17.076Z,9.59
2018-12-04T02:06:16.892Z,9.61
2018-12-04T02:07:17.340Z,9.56
2018-12-04T02:08:17.152Z,9.57
2018-12-04T02:09:16.893Z,9.6
2018-12-04T02:10:17.094Z,9.58
2018-12-04T02:11:17.734Z,9.59
2018-12-04T02:12:17.040Z,9.6
2018-12-04T02:13:16.961Z,9.58
2018-12-04T02:14:16.950Z,9.55
2018-12-04T02:15:16.873Z,9.56
2018-12-04T02:16:16.813Z,9.58
2018-12-04T02:17:16.855Z,9.56
2018-12-04T02:18:17.039Z,9.56
2018-12-04T02:19:16.941Z,9.58
2018-12-04T02:20:16.803Z,9.58
2018-12-04T02:21:16.947Z,9.57
2018-12-04T02:22:16.875Z,9.6
2018-12-04T02:23:16.870Z,9.57
2018-12-04T02:24:16.913Z,9.55
2018-12-04T02:25:16.890Z,9.6
2018-12-04T02:26:16.843Z,9.56
2018-12-04T02:27:17.006Z,9.59
2018-12-04T02:28:17.108Z,9.58
2018-12-04T02:29:16.959Z,9.6
2018-12-04T02:30:16.928Z,9.6
2018-12-04T02:31:16.829Z,9.6
2018-12-04T02:32:17.097Z,9.62
2018-12-04T02:33:16.811Z,9.62
2018-12-04T02:34:17.020Z,9.62
2018-12-04T02:35:17.336Z,9.66
2018-12-04T02:36:16.925Z,9.62
2018-12-04T02:37:17.048Z,9.6
2018-12-04T02:38:17.017Z,9.61
2018-12-04T02:39:16.873Z,9.58
2018-12-04T02:40:17.152Z,9.57
2018-12-04T02:41:17.143Z,9.59
2018-12-04T02:42:17.047Z,9.51
2018-12-04T02:43:16.847Z,9.54
2018-12-04T02:44:16.845Z,9.52
2018-12-04T02:45:17.055Z,9.54
2018-12-04T02:46:17.073Z,9.52
2018-12-04T02:47:16.967Z,9.55
2018-12-04T02:48:16.805Z,9.53
2018-12-04T02:49:16.890Z,9.53
2018-12-04T02:50:17.123Z,9.55
2018-12-04T02:51:16.937Z,9.51
2018-12-04T02:52:16.879Z,9.53
2018-12-04T02:53:16.880Z,9.5
2018-12-04T02:54:16.878Z,9.53
2018-12-04T02:55:16.775Z,9.54
2018-12-04T02:56:16.855Z,9.53
2018-12-04T02:57:16.981Z,9.55
2018-12-04T02:58:16.799Z,9.54
2018-12-04T02:59:17.073Z,9.53
2018-12-04T03:00:17.239Z,9.53
2018-12-04T03:01:16.987Z,9.54
2018-12-04T03:02:16.912Z,9.53
2018-12-04T03:03:16.775Z,9.53
2018-12-04T03:04:16.938Z,9.54
2018-12-04T03:05:16.831Z,9.53
2018-12-04T03:06:17.021Z,9.53
2018-12-04T03:07:16.852Z,9.52
2018-12-04T03:08:16.843Z,9.53
2018-12-04T03:09:16.826Z,9.53
2018-12-04T03:10:16.799Z,9.54
2018-12-04T03:11:16.843Z,9.54
2018-12-04T03:12:16.812Z,9.54
2018-12-04T03:13:16.777Z,9.54
2018-12-04T03:14:17.004Z,9.55
2018-12-04T03:15:16.819Z,9.54
2018-12-04T03:16:17.100Z,9.53
2018-12-04T03:17:16.809Z,9.58
2018-12-04T03:18:16.788Z,9.57
2018-12-04T03:19:16.793Z,9.61
2018-12-04T03:20:16.828Z,9.57
2018-12-04T03:21:16.807Z,9.58
2018-12-04T03:22:16.772Z,9.57
2018-12-04T03:23:16.728Z,9.57
2018-12-04T03:24:17.020Z,9.57
2018-12-04T03:25:16.807Z,9.57
2018-12-04T03:26:16.856Z,9.59
2018-12-04T03:27:16.763Z,9.56
2018-12-04T03:28:16.801Z,9.55
2018-12-04T03:29:16.781Z,9.54
2018-12-04T03:30:16.791Z,9.55
2018-12-04T03:31:16.779Z,9.51
2018-12-04T03:32:16.795Z,9.54
2018-12-04T03:33:16.783Z,9.54
2018-12-04T03:34:16.771Z,9.55
2018-12-04T03:35:16.808Z,9.56
2018-12-04T03:36:16.871Z,9.57
2018-12-04T03:37:17.072Z,9.57
2018-12-04T03:38:16.737Z,9.57
2018-12-04T03:39:16.825Z,9.57
2018-12-04T03:40:16.728Z,9.54
2018-12-04T03:41:16.824Z,9.55
2018-12-04T03:42:16.731Z,9.59
2018-12-04T03:43:17.058Z,9.56
2018-12-04T03:44:16.752Z,9.57
2018-12-04T03:45:16.867Z,9.57
2018-12-04T03:46:16.783Z,9.56
2018-12-04T03:47:16.881Z,9.56
2018-12-04T03:48:16.802Z,9.57
2018-12-04T03:49:16.962Z,9.55
2018-12-04T03:50:16.850Z,9.52
2018-12-04T03:51:16.789Z,9.55
2018-12-04T03:52:16.833Z,9.58
2018-12-04T03:53:16.924Z,9.63
2018-12-04T03:54:16.828Z,9.62
2018-12-04T03:55:17.061Z,9.65
2018-12-04T03:56:16.946Z,9.64
2018-12-04T03:57:16.905Z,9.61
2018-12-04T03:58:16.703Z,9.56
2018-12-04T03:59:16.951Z,9.55
2018-12-04T04:00:16.868Z,9.51
2018-12-04T04:01:17.067Z,9.51
2018-12-04T04:02:16.832Z,9.49
2018-12-04T04:03:16.804Z,9.52
2018-12-04T04:04:16.745Z,9.51
2018-12-04T04:05:17.011Z,9.47
2018-12-04T04:06:16.770Z,9.5
2018-12-04T04:07:16.770Z,9.46
2018-12-04T04:08:17.046Z,9.47
2018-12-04T04:09:16.818Z,9.44
2018-12-04T04:10:17.556Z,9.45
2018-12-04T04:11:16.806Z,9.4
2018-12-04T04:12:16.753Z,9.39
2018-12-04T04:13:16.717Z,9.39
2018-12-04T04:14:16.853Z,9.38
2018-12-04T04:15:16.745Z,9.36
2018-12-04T04:16:16.983Z,9.34
2018-12-04T04:17:16.905Z,9.32
2018-12-04T04:18:16.674Z,9.33
2018-12-04T04:19:16.671Z,9.29
2018-12-04T04:20:16.774Z,9.27
2018-12-04T04:21:16.747Z,9.26
2018-12-04T04:22:16.757Z,9.29
2018-12-04T04:23:16.792Z,9.29
2018-12-04T04:24:16.723Z,9.19
2018-12-04T04:25:16.736Z,9.19
2018-12-04T04:26:17.203Z,9.18
2018-12-04T04:27:16.812Z,9.22
2018-12-04T04:28:16.754Z,9.15
2018-12-04T04:29:16.730Z,9.14
2018-12-04T04:30:16.881Z,9.13
2018-12-04T04:31:16.743Z,9.12
2018-12-04T04:32:16.798Z,9.11
2018-12-04T04:33:16.839Z,9.11
2018-12-04T04:34:16.730Z,9.08
2018-12-04T04:35:16.684Z,9.12
2018-12-04T04:36:16.725Z,9.12
2018-12-04T04:37:16.785Z,9.12
2018-12-04T04:38:16.839Z,9.1
2018-12-04T04:39:16.774Z,9.08
2018-12-04T04:40:16.637Z,9.1
2018-12-04T04:41:16.852Z,9.09
2018-12-04T04:42:16.693Z,9.03
2018-12-04T04:43:16.705Z,9.04
2018-12-04T04:44:17.093Z,9.02
2018-12-04T04:45:16.859Z,9.03
2018-12-04T04:46:16.861Z,9.03
2018-12-04T04:47:16.702Z,9.06
2018-12-04T04:48:16.644Z,9.05
2018-12-04T04:49:16.664Z,9.02
2018-12-04T04:50:16.675Z,9.02
2018-12-04T04:51:16.724Z,9.06
2018-12-04T04:52:16.669Z,9.05
2018-12-04T04:53:16.642Z,9.07
2018-12-04T04:54:16.988Z,9.08
2018-12-04T04:55:16.670Z,9.01
2018-12-04T04:56:16.663Z,9.03
2018-12-04T04:57:16.664Z,9.02
2018-12-04T04:58:16.688Z,9.05
2018-12-04T04:59:16.628Z,9.05
2018-12-04T05:00:16.760Z,9.05
2018-12-04T05:01:16.863Z,9.1
2018-12-04T05:02:16.651Z,9.1
2018-12-04T05:03:16.671Z,9.1
2018-12-04T05:04:16.766Z,9.1
2018-12-04T05:05:16.643Z,9.07
2018-12-04T05:06:16.867Z,9.11
2018-12-04T05:07:16.609Z,9.07
2018-12-04T05:08:16.614Z,9.03
2018-12-04T05:09:16.631Z,9.08
2018-12-04T05:10:16.650Z,9.1
2018-12-04T05:11:16.757Z,9.05
2018-12-04T05:12:17.234Z,9.03
2018-12-04T05:13:16.796Z,9.06
2018-12-04T05:14:16.737Z,9.07
2018-12-04T05:15:16.700Z,9.06
2018-12-04T05:16:16.767Z,9.06
2018-12-04T05:17:16.775Z,9.05
2018-12-04T05:18:16.687Z,9.08
2018-12-04T05:19:16.758Z,9.06
2018-12-04T05:20:16.762Z,9.07
2018-12-04T05:21:16.643Z,9.07
2018-12-04T05:22:16.728Z,9.04
2018-12-04T05:23:16.855Z,9.04
2018-12-04T05:24:17.158Z,9.04
2018-12-04T05:25:16.584Z,9.04
2018-12-04T05:26:16.724Z,9.03
2018-12-04T05:27:16.668Z,9.03
2018-12-04T05:28:16.759Z,9.03
2018-12-04T05:29:16.618Z,8.98
2018-12-04T05:30:16.646Z,9
2018-12-04T05:31:16.698Z,8.96
2018-12-04T05:32:16.605Z,8.91
2018-12-04T05:33:16.669Z,8.92
2018-12-04T05:34:16.651Z,8.92
2018-12-04T05:35:17.306Z,8.94
2018-12-04T05:36:16.769Z,8.92
2018-12-04T05:37:17.020Z,8.92
2018-12-04T05:38:16.781Z,8.9
2018-12-04T05:39:16.565Z,8.9
2018-12-04T05:40:16.621Z,8.84
2018-12-04T05:41:16.849Z,8.89
2018-12-04T05:42:16.845Z,8.84
2018-12-04T05:43:16.792Z,8.82
2018-12-04T05:44:19.650Z,8.87
2018-12-04T05:45:16.771Z,8.83
2018-12-04T05:46:16.766Z,8.83
2018-12-04T05:47:16.758Z,8.84
2018-12-04T05:48:16.624Z,8.83
2018-12-04T05:49:16.736Z,8.88
2018-12-04T05:50:16.553Z,8.86
2018-12-04T05:51:16.596Z,8.86
2018-12-04T05:52:16.922Z,8.82
2018-12-04T05:53:16.941Z,8.75
2018-12-04T05:54:16.752Z,8.78
2018-12-04T05:55:16.623Z,8.78
2018-12-04T05:56:16.580Z,8.79
2018-12-04T05:57:16.827Z,8.77
2018-12-04T05:58:16.731Z,8.75
2018-12-04T05:59:16.717Z,8.76
2018-12-04T06:00:16.575Z,8.68
2018-12-04T06:01:16.639Z,8.58
2018-12-04T06:02:16.723Z,8.61
2018-12-04T06:03:16.909Z,8.57
2018-12-04T06:04:16.619Z,8.58
2018-12-04T06:05:16.990Z,8.49
2018-12-04T06:06:16.861Z,8.48
2018-12-04T06:07:16.642Z,8.54
2018-12-04T06:08:16.823Z,8.57
2018-12-04T06:09:16.552Z,8.57
2018-12-04T06:10:17.366Z,8.51
2018-12-04T06:11:16.596Z,8.58
2018-12-04T06:12:16.562Z,8.46
2018-12-04T06:13:16.539Z,8.49
2018-12-04T06:14:16.643Z,8.57
2018-12-04T06:15:16.672Z,8.47
2018-12-04T06:16:16.557Z,8.42
2018-12-04T06:17:16.732Z,8.45
2018-12-04T06:18:16.654Z,8.42
2018-12-04T06:19:16.557Z,8.24
2018-12-04T06:20:16.715Z,8.24
2018-12-04T06:21:16.623Z,8.35
2018-12-04T06:22:16.750Z,8.4
2018-12-04T06:23:16.588Z,8.42
2018-12-04T06:24:16.625Z,8.39
2018-12-04T06:25:16.586Z,8.36
2018-12-04T06:26:16.607Z,8.34
2018-12-04T06:27:16.613Z,8.31
2018-12-04T06:28:16.560Z,8.37
2018-12-04T06:29:16.515Z,8.32
2018-12-04T06:30:16.963Z,8.07
2018-12-04T06:31:16.623Z,8.21
2018-12-04T06:32:16.566Z,8.08
2018-12-04T06:33:16.569Z,8.05
2018-12-04T06:34:16.575Z,8.04
2018-12-04T06:35:16.505Z,8.03
2018-12-04T06:36:16.507Z,8.12
2018-12-04T06:37:16.585Z,8.08
2018-12-04T06:38:16.591Z,8.1
2018-12-04T06:39:16.527Z,8.03
2018-12-04T06:40:16.534Z,8.1
2018-12-04T06:41:16.514Z,8.12
2018-12-04T06:42:16.493Z,7.99
2018-12-04T06:43:16.537Z,7.88
2018-12-04T06:44:16.548Z,7.88
2018-12-04T06:45:16.502Z,7.83
2018-12-04T06:46:16.533Z,7.77
2018-12-04T06:47:16.560Z,7.79
2018-12-04T06:48:16.598Z,7.87
2018-12-04T06:49:16.568Z,7.77
2018-12-04T06:50:18.491Z,7.75
2018-12-04T06:51:16.494Z,7.87
2018-12-04T06:52:16.570Z,7.74
2018-12-04T06:53:16.714Z,7.61
2018-12-04T06:54:16.652Z,7.65
2018-12-04T06:55:16.505Z,7.59
2018-12-04T06:56:16.520Z,7.56
2018-12-04T06:57:16.665Z,7.56
2018-12-04T06:58:16.598Z,7.49
2018-12-04T06:59:16.792Z,7.48
2018-12-04T07:00:16.515Z,7.5
2018-12-04T07:01:16.556Z,7.42
2018-12-04T07:02:16.532Z,7.46
2018-12-04T07:03:16.664Z,7.49
2018-12-04T07:04:16.546Z,7.55
2018-12-04T07:05:16.646Z,7.42
2018-12-04T07:06:16.519Z,7.41
2018-12-04T07:07:16.835Z,7.42
2018-12-04T07:08:16.562Z,7.5
2018-12-04T07:09:16.557Z,7.4
2018-12-04T07:10:16.503Z,7.44
2018-12-04T07:11:16.581Z,7.43
2018-12-04T07:12:16.644Z,7.45
2018-12-04T07:13:16.639Z,7.46
2018-12-04T07:14:16.463Z,7.5
2018-12-04T07:15:16.791Z,7.46
2018-12-04T07:16:16.873Z,7.51
2018-12-04T07:17:16.539Z,7.44
2018-12-04T07:18:16.737Z,7.46
2018-12-04T07:19:16.650Z,7.57
2018-12-04T07:20:16.570Z,7.47
2018-12-04T07:21:16.494Z,7.48
2018-12-04T07:22:16.539Z,7.5
2018-12-04T07:23:16.567Z,7.49
2018-12-04T07:24:16.587Z,7.53
2018-12-04T07:25:17.358Z,7.43
2018-12-04T07:26:16.530Z,7.34
2018-12-04T07:27:16.963Z,7.32
2018-12-04T07:28:16.474Z,7.27
2018-12-04T07:29:16.627Z,7.29
2018-12-04T07:30:16.494Z,7.33
2018-12-04T07:31:16.598Z,7.35
2018-12-04T07:32:16.477Z,7.38
2018-12-04T07:33:16.443Z,7.16
2018-12-04T07:34:16.690Z,7.19
2018-12-04T07:35:16.529Z,7.14
2018-12-04T07:36:16.846Z,7.16
2018-12-04T07:37:16.463Z,7.14
2018-12-04T07:38:16.541Z,7.12
2018-12-04T07:39:16.428Z,7.11
2018-12-04T07:40:16.490Z,7.12
2018-12-04T07:41:16.600Z,7.07
2018-12-04T07:42:16.553Z,7.1
2018-12-04T07:43:16.599Z,7.11
2018-12-04T07:44:16.663Z,7.16
2018-12-04T07:45:16.543Z,7.12
2018-12-04T07:46:16.576Z,7.23
2018-12-04T07:47:16.697Z,7.15
2018-12-04T07:48:16.612Z,7.2
2018-12-04T07:49:16.535Z,7.13
2018-12-04T07:50:16.505Z,7.19
2018-12-04T07:51:16.734Z,7.27
2018-12-04T07:52:16.616Z,7.1
2018-12-04T07:53:16.630Z,7.15
2018-12-04T07:54:16.600Z,7.13
2018-12-04T07:55:16.501Z,7.1
2018-12-04T07:56:16.545Z,7.15
2018-12-04T07:57:16.415Z,7.16
2018-12-04T07:58:16.585Z,7.12
2018-12-04T07:59:16.681Z,7.19
2018-12-04T08:00:16.621Z,7.19
2018-12-04T08:01:16.414Z,7.18
2018-12-04T08:02:16.431Z,7.16
2018-12-04T08:03:16.638Z,7.19
2018-12-04T08:04:16.597Z,7.09
2018-12-04T08:05:16.539Z,7.13
2018-12-04T08:06:16.467Z,7.17
2018-12-04T08:07:16.430Z,7.16
2018-12-04T08:08:16.371Z,7.12
2018-12-04T08:09:16.422Z,7.11
2018-12-04T08:10:16.407Z,7.09
2018-12-04T08:11:16.394Z,7.09
2018-12-04T08:12:16.385Z,7.11
2018-12-04T08:13:16.511Z,7.1
2018-12-04T08:14:16.448Z,7.14
2018-12-04T08:15:16.351Z,7.13
2018-12-04T08:16:16.425Z,7.2
2018-12-04T08:17:16.793Z,7.13
2018-12-04T08:18:16.434Z,7.08
2018-12-04T08:19:16.379Z,7.08
2018-12-04T08:20:16.447Z,7.14
2018-12-04T08:21:16.406Z,7.12
2018-12-04T08:22:16.442Z,7.04
2018-12-04T08:23:16.408Z,7.02
2018-12-04T08:24:16.639Z,7.07
2018-12-04T08:25:16.421Z,7.1
2018-12-04T08:26:16.431Z,7.04
2018-12-04T08:27:16.588Z,7.05
2018-12-04T08:28:16.446Z,6.99
2018-12-04T08:29:16.384Z,7.08
2018-12-04T08:30:16.422Z,7.05
2018-12-04T08:31:16.390Z,7.09
2018-12-04T08:32:16.470Z,7.17
2018-12-04T08:33:16.491Z,7.12
2018-12-04T08:34:16.572Z,7.09
2018-12-04T08:35:16.448Z,7.04
2018-12-04T08:36:16.456Z,7.12
2018-12-04T08:37:16.616Z,7.16
2018-12-04T08:38:16.359Z,6.98
2018-12-04T08:39:16.432Z,7.02
2018-12-04T08:40:16.555Z,6.96
2018-12-04T08:41:16.352Z,7.05
2018-12-04T08:42:16.517Z,7.1
2018-12-04T08:43:16.500Z,6.87
2018-12-04T08:44:16.653Z,6.91
2018-12-04T08:45:16.413Z,6.9
2018-12-04T08:46:16.484Z,6.94
2018-12-04T08:47:17.220Z,7.01
2018-12-04T08:48:17.121Z,6.9
2018-12-04T08:49:16.646Z,7.03
2018-12-04T08:50:16.446Z,6.99
2018-12-04T08:51:16.428Z,7.03
2018-12-04T08:52:16.411Z,7.01
2018-12-04T08:53:16.526Z,7.14
2018-12-04T08:54:16.375Z,7.17
2018-12-04T08:55:16.400Z,7.21
2018-12-04T08:56:16.824Z,7.29
2018-12-04T08:57:16.604Z,7.31
2018-12-04T08:58:16.583Z,7.25
2018-12-04T08:59:16.516Z,7.2
2018-12-04T09:00:16.336Z,7.2
2018-12-04T09:01:16.425Z,7.19
2018-12-04T09:02:16.827Z,7.3
2018-12-04T09:03:16.462Z,7.3
2018-12-04T09:04:16.448Z,7.36
2018-12-04T09:05:16.711Z,7.42
2018-12-04T09:06:16.356Z,7.53
2018-12-04T09:07:17.183Z,7.49
2018-12-04T09:08:16.418Z,7.55
2018-12-04T09:09:16.334Z,7.45
2018-12-04T09:10:16.521Z,7.41
2018-12-04T09:11:16.522Z,7.35
2018-12-04T09:12:16.433Z,7.17
2018-12-04T09:13:16.374Z,7.23
2018-12-04T09:14:16.453Z,7.44
2018-12-04T09:15:16.500Z,7.49
2018-12-04T09:16:16.488Z,7.47
2018-12-04T09:17:16.373Z,7.51
2018-12-04T09:18:16.598Z,7.61
2018-12-04T09:19:16.406Z,7.43
2018-12-04T09:20:17.523Z,7.45
2018-12-04T09:21:16.649Z,7.44
2018-12-04T09:22:16.542Z,7.34
2018-12-04T09:23:16.582Z,7.44
2018-12-04T09:24:16.990Z,7.39
2018-12-04T09:25:16.402Z,7.4
2018-12-04T09:26:16.917Z,7.43
2018-12-04T09:27:16.603Z,7.23
2018-12-04T09:28:16.692Z,7.39
2018-12-04T09:29:16.660Z,7.36
2018-12-04T09:30:16.656Z,7.31
2018-12-04T09:31:16.521Z,7.4
2018-12-04T09:32:16.471Z,7.43
2018-12-04T09:33:16.743Z,7.42
2018-12-04T09:34:16.793Z,7.37
2018-12-04T09:35:16.310Z,7.39
2018-12-04T09:36:17.175Z,7.19
2018-12-04T09:37:16.773Z,7.19
2018-12-04T09:38:16.350Z,7.06
2018-12-04T09:39:16.317Z,7.19
2018-12-04T09:40:16.308Z,7.21
2018-12-04T09:41:16.700Z,7.16
2018-12-04T09:42:16.268Z,7.07
2018-12-04T09:43:16.271Z,7.1
2018-12-04T09:44:16.320Z,7.1
2018-12-04T09:45:16.287Z,7.14
2018-12-04T09:46:16.894Z,7.21
2018-12-04T09:47:17.009Z,7.21
2018-12-04T09:48:16.326Z,7.18
2018-12-04T09:49:16.274Z,7.15
2018-12-04T09:50:16.586Z,7.13
2018-12-04T09:51:16.336Z,7.21
2018-12-04T09:52:16.240Z,7.24
2018-12-04T09:53:16.278Z,7.27
2018-12-04T09:54:16.355Z,7.36
2018-12-04T09:55:16.262Z,7.35
2018-12-04T09:56:16.278Z,7.31
2018-12-04T09:57:16.260Z,7.39
2018-12-04T09:58:16.245Z,7.3
2018-12-04T09:59:16.543Z,7.43
2018-12-04T10:00:16.267Z,7.42
2018-12-04T10:01:16.309Z,7.23
2018-12-04T10:02:16.286Z,7.38
2018-12-04T10:03:16.663Z,7.35
2018-12-04T10:04:16.220Z,7.38
2018-12-04T10:05:16.334Z,7.43
2018-12-04T10:06:16.391Z,7.31
2018-12-04T10:07:16.454Z,7.32
2018-12-04T10:08:16.301Z,7.39
2018-12-04T10:09:16.309Z,7.25
2018-12-04T10:10:16.319Z,7.23
2018-12-04T10:11:16.531Z,7.28
2018-12-04T10:12:16.350Z,7.3
2018-12-04T10:13:16.407Z,7.35
2018-12-04T10:14:16.537Z,7.33
2018-12-04T10:15:17.088Z,7.39
2018-12-04T10:16:16.472Z,7.41
2018-12-04T10:17:16.368Z,7.36
2018-12-04T10:18:16.272Z,7.41
2018-12-04T10:19:16.389Z,7.47
2018-12-04T10:20:16.708Z,7.31
2018-12-04T10:21:16.239Z,7.55
2018-12-04T10:22:16.722Z,7.39
2018-12-04T10:23:16.326Z,7.31
2018-12-04T10:24:16.539Z,7.3
2018-12-04T10:25:16.836Z,7.32
2018-12-04T10:26:16.484Z,7.26
2018-12-04T10:27:16.470Z,7.13
2018-12-04T10:28:16.373Z,7.19
2018-12-04T10:29:16.589Z,7.2
2018-12-04T10:30:16.516Z,7.39
2018-12-04T10:31:16.693Z,7.38
2018-12-04T10:32:16.563Z,7.44
2018-12-04T10:33:18.665Z,7.42
2018-12-04T10:34:16.283Z,7.24
2018-12-04T10:35:16.593Z,7.17
2018-12-04T10:36:16.577Z,7.3
2018-12-04T10:37:16.414Z,7.2
2018-12-04T10:38:16.458Z,7.26
2018-12-04T10:39:16.200Z,7.39
2018-12-04T10:40:16.570Z,7.52
2018-12-04T10:41:16.477Z,7.42
2018-12-04T10:42:16.368Z,7.3
2018-12-04T10:43:16.216Z,7.39
2018-12-04T10:44:16.427Z,7.34
2018-12-04T10:45:16.329Z,7.16
2018-12-04T10:46:16.395Z,7.17
2018-12-04T10:47:16.423Z,7.1
2018-12-04T10:48:16.258Z,7.05
2018-12-04T10:49:16.608Z,6.85
2018-12-04T10:50:16.257Z,6.97
2018-12-04T10:51:16.280Z,6.91
2018-12-04T10:52:16.408Z,6.95
2018-12-04T10:53:16.266Z,6.93
2018-12-04T10:54:17.090Z,6.73
2018-12-04T10:55:16.306Z,6.54
2018-12-04T10:56:16.236Z,6.55
2018-12-04T10:57:16.475Z,6.53
2018-12-04T10:58:16.526Z,6.67
2018-12-04T10:59:16.458Z,6.72
2018-12-04T11:00:16.516Z,6.73
2018-12-04T11:01:16.518Z,6.68
2018-12-04T11:02:16.444Z,6.53
2018-12-04T11:03:16.222Z,6.65
2018-12-04T11:04:16.420Z,6.64
2018-12-04T11:05:16.175Z,6.69
2018-12-04T11:06:17.163Z,6.59
2018-12-04T11:07:16.159Z,6.66
2018-12-04T11:08:16.165Z,6.57
2018-12-04T11:09:16.432Z,6.69
2018-12-04T11:10:16.359Z,6.53
2018-12-04T11:11:16.343Z,6.5
2018-12-04T11:12:17.106Z,6.36
2018-12-04T11:13:17.224Z,6.45
2018-12-04T11:14:16.489Z,6.37
2018-12-04T11:15:16.220Z,6.43
2018-12-04T11:16:17.126Z,6.33
2018-12-04T11:17:16.132Z,6.44
2018-12-04T11:18:17.139Z,6.44
2018-12-04T11:19:17.338Z,6.35
2018-12-04T11:20:19.118Z,6.39
2018-12-04T11:21:16.597Z,6.14
2018-12-04T11:22:18.943Z,6.15
2018-12-04T11:23:16.231Z,6.11
2018-12-04T11:24:16.186Z,6.16
2018-12-04T11:25:16.239Z,6.08
2018-12-04T11:26:16.214Z,6.22
2018-12-04T11:27:16.197Z,6.18
2018-12-04T11:28:16.255Z,6.16
2018-12-04T11:29:16.328Z,6.2
2018-12-04T11:30:16.174Z,6.27
2018-12-04T11:31:16.147Z,6.26
2018-12-04T11:32:16.161Z,6.21
2018-12-04T11:33:16.164Z,6.29
2018-12-04T11:34:16.126Z,6
2018-12-04T11:35:16.164Z,6.07
2018-12-04T11:36:16.328Z,6.14
2018-12-04T11:37:16.215Z,6.18
2018-12-04T11:38:16.157Z,6.08
2018-12-04T11:39:16.265Z,6.16
2018-12-04T11:40:16.214Z,6.16
2018-12-04T11:41:16.140Z,6.18
2018-12-04T11:42:16.335Z,6.26
2018-12-04T11:43:16.138Z,6.22
2018-12-04T11:44:16.402Z,6.16
2018-12-04T11:45:16.306Z,6.18
2018-12-04T11:46:16.162Z,6.25
2018-12-04T11:47:16.499Z,6.32
2018-12-04T11:48:16.353Z,6.41
2018-12-04T11:49:16.650Z,6.14
2018-12-04T11:50:16.632Z,6.18
2018-12-04T11:51:16.410Z,6.05
2018-12-04T11:52:16.295Z,5.96
2018-12-04T11:53:16.223Z,6.03
2018-12-04T11:54:17.005Z,6.06
2018-12-04T11:55:16.473Z,6.09
2018-12-04T11:56:16.498Z,6.01
2018-12-04T11:57:16.202Z,5.95
2018-12-04T11:58:16.409Z,5.93
2018-12-04T11:59:16.378Z,5.89
2018-12-04T12:00:16.255Z,6
2018-12-04T12:01:16.488Z,5.98
2018-12-04T12:02:16.152Z,5.97
2018-12-04T12:03:16.263Z,6.04
2018-12-04T12:04:16.182Z,6.06
2018-12-04T12:05:16.178Z,6.15
2018-12-04T12:06:16.423Z,6.16
2018-12-04T12:07:20.877Z,6.16
2018-12-04T12:08:16.111Z,6.35
2018-12-04T12:09:16.268Z,6.13
2018-12-04T12:10:16.358Z,6.17
2018-12-04T12:11:16.116Z,6.21
2018-12-04T12:12:16.289Z,6.34
2018-12-04T12:13:16.951Z,6.46
2018-12-04T12:14:16.332Z,6.46
2018-12-04T12:15:19.870Z,6.54
2018-12-04T12:16:16.121Z,6.36
2018-12-04T12:17:16.093Z,6.26
2018-12-04T12:18:16.304Z,6.31
2018-12-04T12:19:16.247Z,6.32
2018-12-04T12:20:16.119Z,6.37
2018-12-04T12:21:16.166Z,6.34
2018-12-04T12:22:16.190Z,6.41
2018-12-04T12:23:16.395Z,6.45
2018-12-04T12:24:16.380Z,6.29
2018-12-04T12:25:16.136Z,6.32
2018-12-04T12:26:16.260Z,6.28
2018-12-04T12:27:16.126Z,6.33
2018-12-04T12:28:16.889Z,6.42
2018-12-04T12:29:16.470Z,6.32
2018-12-04T12:30:16.621Z,6.48
2018-12-04T12:31:16.228Z,6.53
2018-12-04T12:32:16.249Z,6.48
2018-12-04T12:33:16.269Z,6.53
2018-12-04T12:34:16.327Z,6.63
2018-12-04T12:35:16.158Z,6.58
2018-12-04T12:36:16.232Z,6.45
2018-12-04T12:37:16.957Z,6.51
2018-12-04T12:38:16.246Z,6.49
2018-12-04T12:39:16.156Z,6.25
2018-12-04T12:40:16.225Z,6.24
2018-12-04T12:41:16.260Z,6.27
2018-12-04T12:42:16.164Z,6.29
2018-12-04T12:43:16.316Z,6.37
2018-12-04T12:44:16.133Z,6.42
2018-12-04T12:45:16.236Z,6.34
2018-12-04T12:46:16.219Z,6.25
2018-12-04T12:47:16.245Z,6.32
2018-12-04T12:48:16.273Z,6.3
2018-12-04T12:49:16.076Z,6.3
2018-12-04T12:50:16.904Z,6.36
2018-12-04T12:51:16.157Z,6.37
2018-12-04T12:52:16.085Z,6.3
2018-12-04T12:53:16.224Z,6.34
2018-12-04T12:54:16.208Z,6.38
2018-12-04T12:55:16.113Z,6.44
2018-12-04T12:56:16.159Z,6.56
2018-12-04T12:57:16.108Z,6.52
2018-12-04T12:58:16.121Z,6.43
2018-12-04T12:59:16.079Z,6.4
2018-12-04T13:00:16.062Z,6.45
2018-12-04T13:01:16.041Z,6.37
2018-12-04T13:02:16.240Z,6.4
2018-12-04T13:03:16.236Z,6.53
2018-12-04T13:04:16.077Z,6.6
2018-12-04T13:05:16.227Z,6.68
2018-12-04T13:06:16.125Z,6.66
2018-12-04T13:07:16.159Z,6.72
2018-12-04T13:08:16.179Z,6.8
2018-12-04T13:09:16.079Z,6.88
2018-12-04T13:10:16.185Z,6.87
2018-12-04T13:11:16.090Z,6.92
2018-12-04T13:12:16.118Z,6.94
2018-12-04T13:13:16.097Z,6.89
2018-12-04T13:14:16.127Z,6.94
2018-12-04T13:15:16.142Z,6.83
2018-12-04T13:16:16.093Z,6.9
2018-12-04T13:17:16.106Z,6.94
2018-12-04T13:18:16.122Z,7.01
2018-12-04T13:19:16.018Z,6.96
2018-12-04T13:20:16.151Z,6.94
2018-12-04T13:21:16.067Z,6.97